Flight Track Log - Related Links

Times and Time Zones

All times are in EDT time to prevent confusion due to time zone crossing. See the HAL104 flight status page for this flight to view local times or setup timezone preferences in your user account.

Time Position Orientation Groundspeed Altitude Reporting Facility
EDT Latitude Longitude Course Direction KTS MPH feet Rate Location/Type
Sun 12:33:03 PM 21.9500 -159.3333 126° Southeast 150 173 1,100  Level Honolulu Center
Sun 12:34:03 PM 21.9333 -159.2833 110° East 190 219 2,900 1,950 Climbing Honolulu Center
Sun 12:35:00 PM 21.8670 -159.1674 118° Southeast  Level FlightAware Approximate
Sun 12:35:03 PM 21.9000 -159.2167 118° Southeast 240 276 5,000  Level Honolulu Center
Sun 12:36:00 PM 21.8367 -159.1068 118° Southeast  Level FlightAware Approximate
Sun 12:36:04 PM 21.8667 -159.1500 118° Southeast 240 276 7,200  Level Honolulu Center
Sun 12:37:00 PM 21.8003 -159.0504 126° Southeast  Level FlightAware Approximate
Sun 12:37:04 PM 21.8333 -159.0833 118° Southeast 290 334 10,100  Level Honolulu Center
Sun 12:38:00 PM 21.7631 -158.9946 126° Southeast  Level FlightAware Approximate
Sun 12:38:04 PM 21.7833 -159.0000 123° Southeast 330 380 12,200  Level Honolulu Center
Sun 12:39:04 PM 21.7167 -158.9000 126° Southeast 350 403 13,100 450 Climbing Honolulu Center
Sun 12:40:04 PM 21.6667 -158.8000 118° Southeast 380 437 13,100 -50 Level Honolulu Center
Sun 12:41:04 PM 21.6167 -158.7167 123° Southeast 390 449 13,000 -50 Descending Honolulu Center
Sun 12:42:04 PM 21.5667 -158.6167 118° Southeast 380 437 13,000 -600 Level Honolulu Center
Sun 12:43:04 PM 21.5333 -158.5167 110° East 350 403 11,800 -1,240 Descending Honolulu Center
Sun 12:44:05 PM 21.5000 -158.4333 113° Southeast 300 345 10,500 -1,537 Descending Honolulu Center
Sun 12:45:05 PM 21.4667 -158.3500 113° Southeast 290 334 8,700 -1,800 Descending Honolulu Center
Sun 12:46:05 PM 21.4500 -158.2667 102° East 280 322 6,900 -1,800 Descending Honolulu Center
Sun 12:47:05 PM 21.4000 -158.2000 129° Southeast 270 311 5,100 -950 Descending Honolulu Center
Sun 12:48:05 PM 21.3500 -158.1333 129° Southeast 270 311 5,000 -550 Descending Honolulu Center
Sun 12:49:05 PM 21.3000 -158.0833 137° Southeast 240 276 4,000 -1,200 Descending Honolulu Center
Sun 12:50:05 PM 21.2833 -158.0333 110° East 220 253 2,600 -1,400 Descending Honolulu Center

Login

Don't have an account? Register now (free) for customized features, flight alerts, and more!